Nezperce, ID (83543)

5:37 AM PST on February 07, 2016 (GMT -0800)
Highland Schools | | Change Station
CLOSE
Current Station
Personal Weather Station
Location: Craigmont, ID
Elevation: 3783 ft
Nearby Weather Stations

Elev 3783 ft 46.24 °N, 116.47 °W | Updated 6 seconds ago

Clear
Clear
29.5 °F
Feels Like 25 °F
N
4.6
Wind Variable Wind from WSW
Gusts 4.6 mph

Today
High -- | Low -- °F
--% Chance of Precip.
Yesterday
High -- | Low -- °F
Precip. -- in
Pressure 30.50 in
Visibility 7.0 miles
Clouds Clear
Windchill 25 °F
Dew Point 25 °F
Humidity 82%
Rainfall 0.00 in
Snow Depth Not available.
7:00 AM 4:58 PM
Waning Crescent, 1% visible
METAR KGIC 071315Z AUTO 14003KT 7SM CLR M02/M03 A3050 RMK AO1
Pressure 30.50 in
Visibility 7.0 miles
Clouds Clear
Windchill 25 °F
Dew Point 25 °F
Humidity 82%
Rainfall 0.00 in
Snow Depth Not available.
7:00 AM 4:58 PM
Waning Crescent, 1% visible
METAR KGIC 071315Z AUTO 14003KT 7SM CLR M02/M03 A3050 RMK AO1

10-Day Weather Forecast

Almanac

Astronomy

Feb. 07, 2016 Rise Set
Actual Time
Civil Twilight
Nautical Twilight
Astronomical Twilight
Moon
Length of Visible Light
Length of Day
Tomorrow will be .
, % of the Moon is Illuminated

Today's Extremes

State Highs State Lows

Community

WunderPhotos

Upload Photos

1,891,190 photos uploaded!

WunderBlog® & News

Nearby

Air Quality

  Air Quality AQ Index Pollutant
Not available.

Snow Depth

Station Depth Elevation

Earthquake Activity

City Distance Mag. Time & Date
Minimum magnitude displayed is 2.5.

Coastal Water Temperatures

Place Temperature

Stations

Nearby Weather Stations

Station Location Temp. Windchill Dew Point Humidity Wind Precip. Elev Updated Type
                   

Watches & Warnings

There are currently no watches in effect.